West Swanzey, New Hampshire
Current Conditions -  °F | °C
As of 9:35 AM on Saturday 22 Nov 2014 (Local Time) from KEEN Reporting Station
Clear Clear  
Wind Chill: 27°   Ceiling: Unl
Heat Index: 27°   Visibility: 10mi
Dew Point: 14°   Wind: 0mph
Humidity: 59%   Direction: NA
Pressure: 30.31"   Gusts: NA
Location:  42.87°N, 72.32°W
Report Text: KEEN 221435Z AUTO 00000KT 10SM CLR M03/M10 A3031 RMK AO1
Loading
Personal Weather Stations






























Interactive Weather Map New forecast layout! Learn more

10-Day Weather Forecast

Advertisements
Track Severe Weather on mobile